Ocean King — CZ2591 — position and weather

sailwx.info

Track history (hours):
 
Tides and Currents Weather Stations Pressure Air Temp Water Temp Dewpoint Dewpoint Depression Visibility Wind Speed Wind Dir Waves Ship Positions

Ocean King

Last reported at 2016-Nov-01 23:31 UTC. Time now 2016-Dec-08 09:55 UTC.
Position N 48°57' W 125°11'.
Warning: this ship's position is 36 days out of date.

Length 29 m; draft 4 m.

Type: Fishing. MMSI: 316003514.

Date/timePositionNaut miles runAvg speedWind from/ knotsBaromVisibWave heightAir tempDewpointWater temp
2016-Nov-01 23:31N 48°57' W 125°11'14 4.8
2016-Nov-01 20:33N 48°56' W 125°32'0 0.0
2016-Nov-01 19:33N 48°56' W 125°32'9 0.6
2016-Nov-01 03:34N 48°56' W 125°46'8 8.1
2016-Nov-01 02:33N 48°58' W 125°58'15 7.5
2016-Nov-01 00:30N 49°01' W 126°21'7 7.1
2016-Oct-31 23:33N 49°03' W 126°31'3 2.6
2016-Oct-31 22:33N 49°02' W 126°35'3 1.6
2016-Oct-31 20:31N 48°58' W 126°34'2 2.4
2016-Oct-31 19:33N 48°56' W 126°32'2 1.8
2016-Oct-31 18:32N 48°54' W 126°32'16 3.2
2016-Oct-31 13:33N 48°42' W 126°17'1 0.6
2016-Oct-31 12:34N 48°42' W 126°16'1 0.6
2016-Oct-31 10:33N 48°42' W 126°14'0 0.4
2016-Oct-31 09:33N 48°42' W 126°14'0 0.4
2016-Oct-31 08:33N 48°42' W 126°13'0 0.4
2016-Oct-31 07:33N 48°41' W 126°13'3 0.7
2016-Oct-31 03:32N 48°40' W 126°09'4 0.6
2016-Oct-30 20:33N 48°36' W 126°10'3 0.4
2016-Oct-30 13:33N 48°33' W 126°11'1 0.6
2016-Oct-30 12:33N 48°33' W 126°11'1 0.7
2016-Oct-30 11:33N 48°32' W 126°10'3 1.0
2016-Oct-30 08:33N 48°29' W 126°08'1 1.1
2016-Oct-30 07:32N 48°28' W 126°07'18 3.5
2016-Oct-30 02:33N 48°43' W 126°22'6 3.0
2016-Oct-30 00:33N 48°47' W 126°29'2 1.7
2016-Oct-29 23:33N 48°48' W 126°27'2 2.5
2016-Oct-29 22:33N 48°47' W 126°23'3 2.5
2016-Oct-29 21:33N 48°46' W 126°20'2 2.4
2016-Oct-29 20:33N 48°44' W 126°17'2 2.1
2016-Oct-29 19:32N 48°43' W 126°15'5 4.6
2016-Oct-29 18:33N 48°46' W 126°20'4 1.8
2016-Oct-29 16:33N 48°44' W 126°15'7 3.5
2016-Oct-29 14:33N 48°47' W 126°06'20 6.8
2016-Oct-29 11:33N 48°54' W 125°37'4 2.0
2016-Oct-29 09:33N 48°56' W 125°32'0 0.0
2016-Oct-29 06:33N 48°56' W 125°32'  
Track history (hours):
 
Tides and Currents Weather Stations Pressure Air Temp Water Temp Dewpoint Dewpoint Depression Visibility Wind Speed Wind Dir Waves Ship Positions

Ocean King

Last reported at 2016-Nov-01 23:31 UTC. Time now 2016-Dec-08 09:55 UTC.
Position N 48°57' W 125°11'.
Warning: this ship's position is 36 days out of date.

Length 29 m; draft 4 m.

Type: Fishing. MMSI: 316003514.

Date/timePositionNaut miles runAvg speedWind from/ knotsBaromVisibWave heightAir tempDewpointWater temp
2016-Nov-01 23:31N 48°57' W 125°11'14 4.8
2016-Nov-01 20:33N 48°56' W 125°32'0 0.0
2016-Nov-01 19:33N 48°56' W 125°32'9 0.6
2016-Nov-01 03:34N 48°56' W 125°46'8 8.1
2016-Nov-01 02:33N 48°58' W 125°58'15 7.5
2016-Nov-01 00:30N 49°01' W 126°21'7 7.1
2016-Oct-31 23:33N 49°03' W 126°31'3 2.6
2016-Oct-31 22:33N 49°02' W 126°35'3 1.6
2016-Oct-31 20:31N 48°58' W 126°34'2 2.4
2016-Oct-31 19:33N 48°56' W 126°32'2 1.8
2016-Oct-31 18:32N 48°54' W 126°32'16 3.2
2016-Oct-31 13:33N 48°42' W 126°17'1 0.6
2016-Oct-31 12:34N 48°42' W 126°16'1 0.6
2016-Oct-31 10:33N 48°42' W 126°14'0 0.4
2016-Oct-31 09:33N 48°42' W 126°14'0 0.4
2016-Oct-31 08:33N 48°42' W 126°13'0 0.4
2016-Oct-31 07:33N 48°41' W 126°13'3 0.7
2016-Oct-31 03:32N 48°40' W 126°09'4 0.6
2016-Oct-30 20:33N 48°36' W 126°10'3 0.4
2016-Oct-30 13:33N 48°33' W 126°11'1 0.6
2016-Oct-30 12:33N 48°33' W 126°11'1 0.7
2016-Oct-30 11:33N 48°32' W 126°10'3 1.0
2016-Oct-30 08:33N 48°29' W 126°08'1 1.1
2016-Oct-30 07:32N 48°28' W 126°07'18 3.5
2016-Oct-30 02:33N 48°43' W 126°22'6 3.0
2016-Oct-30 00:33N 48°47' W 126°29'2 1.7
2016-Oct-29 23:33N 48°48' W 126°27'2 2.5
2016-Oct-29 22:33N 48°47' W 126°23'3 2.5
2016-Oct-29 21:33N 48°46' W 126°20'2 2.4
2016-Oct-29 20:33N 48°44' W 126°17'2 2.1
2016-Oct-29 19:32N 48°43' W 126°15'5 4.6
2016-Oct-29 18:33N 48°46' W 126°20'4 1.8
2016-Oct-29 16:33N 48°44' W 126°15'7 3.5
2016-Oct-29 14:33N 48°47' W 126°06'20 6.8
2016-Oct-29 11:33N 48°54' W 125°37'4 2.0
2016-Oct-29 09:33N 48°56' W 125°32'0 0.0
2016-Oct-29 06:33N 48°56' W 125°32'  

Dump ship's entire track history